West Millgrove, Ohio
Current Conditions -  °F | °C
As of 7:53 PM on Monday 24 Nov 2014 (Local Time) from KFDY Reporting Station
Overcast Overcast  
Wind Chill: 27°   Ceiling: 3500
Heat Index: 39°   Visibility: 10mi
Dew Point: 29°   Wind: 32mph
Humidity: 67%   Direction: 250°WSW
Pressure: 29.72"   Gusts: 44mph
Location:  41.24°N, 83.49°W
Report Text: KFDY 250053Z AUTO 25028G38KT 10SM SCT027 OVC035 04/M02 A2972 RMK AO2 PK WND 24040/0039 SLP062 T00391017
Loading
Personal Weather Stations






























Interactive Weather Map New forecast layout! Learn more

10-Day Weather Forecast

Advertisements
Track Severe Weather on mobile